Terminal Aerodrome Forecast
Issued by NWS

Home | Current Version | Previous Version | Text Only | Print | Product List | Glossary On
Versions: 1 2 3 4 5 6 7 8 9 10 11 12 13 14 15 16
000
FTUS46 KLOX 251124
TAFSBA
TAF
KSBA 251124Z 2512/2612 VRB03KT P6SM SCT015
     FM252000 24009KT P6SM SCT025
     FM260300 VRB03KT P6SM SCT030
     FM261000 14006KT P6SM OVC015=

USA.gov is the U.S. government's official web portal to all federal, state and local government web resources and services.